createdAt,value
2018-10-02T00:02:05.809Z,6.30
2018-10-02T00:04:34.394Z,6.40
2018-10-02T00:07:02.953Z,6.30
2018-10-02T00:09:31.414Z,6.40
2018-10-02T00:12:05.105Z,6.10
2018-10-02T00:14:33.593Z,6.10
2018-10-02T00:17:02.033Z,6.00
2018-10-02T00:19:30.503Z,6.10
2018-10-02T00:21:58.938Z,6.10
2018-10-02T00:24:27.440Z,6.10
2018-10-02T00:26:55.881Z,6.00
2018-10-02T00:29:24.346Z,5.90
2018-10-02T00:31:52.915Z,5.80
2018-10-02T00:34:21.573Z,5.70
2018-10-02T00:36:50.049Z,5.90
2018-10-02T00:39:18.497Z,5.90
2018-10-02T00:41:46.976Z,5.90
2018-10-02T00:44:15.427Z,5.90
2018-10-02T00:46:43.881Z,5.80
2018-10-02T00:49:12.337Z,5.70
2018-10-02T00:51:40.930Z,5.70
2018-10-02T00:54:09.377Z,5.70
2018-10-02T00:56:37.842Z,5.60
2018-10-02T00:59:06.362Z,5.50
2018-10-02T01:01:34.825Z,5.40
2018-10-02T01:04:03.293Z,5.50
2018-10-02T01:06:31.793Z,5.60
2018-10-02T01:09:00.254Z,5.60
2018-10-02T01:11:28.720Z,5.60
2018-10-02T01:13:57.629Z,5.70
2018-10-02T01:16:26.095Z,5.50
2018-10-02T01:18:54.529Z,5.60
2018-10-02T01:21:22.995Z,5.70
2018-10-02T01:23:51.449Z,5.60
2018-10-02T01:26:19.937Z,5.50
2018-10-02T01:28:48.345Z,5.50
2018-10-02T01:31:16.849Z,5.50
2018-10-02T01:33:45.280Z,5.60
2018-10-02T01:36:13.755Z,5.70
2018-10-02T01:38:42.265Z,5.50
2018-10-02T01:41:11.178Z,5.40
2018-10-02T01:43:39.618Z,5.50
2018-10-02T01:46:08.281Z,5.60
2018-10-02T01:48:36.777Z,5.60
2018-10-02T01:51:05.263Z,5.50
2018-10-02T01:53:33.705Z,5.60
2018-10-02T01:56:02.187Z,5.60
2018-10-02T01:58:30.630Z,5.60
2018-10-02T02:00:59.101Z,5.50
2018-10-02T02:03:27.578Z,5.40
2018-10-02T02:05:56.037Z,5.30
2018-10-02T02:08:24.830Z,5.30
2018-10-02T02:10:53.309Z,5.30
2018-10-02T02:13:21.797Z,5.30
2018-10-02T02:15:50.309Z,5.30
2018-10-02T02:18:18.777Z,5.50
2018-10-02T02:20:47.252Z,5.40
2018-10-02T02:23:15.721Z,5.30
2018-10-02T02:25:44.145Z,5.40
2018-10-02T02:28:12.605Z,5.40
2018-10-02T02:30:41.050Z,5.30
2018-10-02T02:33:10.348Z,5.30
2018-10-02T02:35:38.840Z,5.40
2018-10-02T02:38:07.365Z,5.50
2018-10-02T02:40:35.813Z,5.40
2018-10-02T02:43:04.322Z,5.50
2018-10-02T02:45:32.765Z,5.40
2018-10-02T02:48:06.529Z,5.40
2018-10-02T02:51:40.947Z,5.50
2018-10-02T02:54:09.400Z,5.50
2018-10-02T02:56:37.873Z,5.40
2018-10-02T02:59:06.356Z,5.30
2018-10-02T03:01:34.848Z,5.30
2018-10-02T03:04:03.346Z,5.50
2018-10-02T03:06:32.697Z,5.50
2018-10-02T03:09:01.129Z,5.50
2018-10-02T03:11:29.565Z,5.40
2018-10-02T03:13:58.041Z,5.40
2018-10-02T03:16:26.497Z,5.30
2018-10-02T03:18:54.971Z,5.30
2018-10-02T03:21:23.419Z,5.40
2018-10-02T03:23:51.893Z,5.30
2018-10-02T03:26:20.354Z,5.30
2018-10-02T03:28:48.814Z,5.30
2018-10-02T03:31:17.266Z,5.30
2018-10-02T03:33:45.768Z,5.40
2018-10-02T03:36:14.226Z,5.30
2018-10-02T03:38:42.681Z,5.40
2018-10-02T03:41:11.142Z,5.40
2018-10-02T03:43:39.615Z,5.40
2018-10-02T03:46:08.054Z,5.20
2018-10-02T03:48:36.516Z,5.30
2018-10-02T03:51:05.011Z,5.40
2018-10-02T03:53:33.489Z,5.30
2018-10-02T03:56:01.905Z,5.30
2018-10-02T03:58:30.378Z,5.40
2018-10-02T04:00:58.801Z,5.40
2018-10-02T04:03:27.347Z,5.40
2018-10-02T04:05:55.788Z,5.40
2018-10-02T04:08:24.270Z,5.30
2018-10-02T04:10:52.700Z,5.40
2018-10-02T04:13:21.229Z,5.40
2018-10-02T04:15:49.651Z,5.30
2018-10-02T04:18:18.136Z,5.30
2018-10-02T04:20:46.634Z,5.20
2018-10-02T04:23:15.085Z,5.20
2018-10-02T04:25:43.518Z,5.20
2018-10-02T04:28:12.031Z,5.20
2018-10-02T04:30:40.401Z,5.20
2018-10-02T04:33:08.870Z,5.10
2018-10-02T04:35:37.297Z,5.10
2018-10-02T04:38:05.877Z,5.10
2018-10-02T04:40:34.312Z,5.10
2018-10-02T04:43:02.788Z,5.10
2018-10-02T04:45:31.323Z,5.10
2018-10-02T04:48:00.085Z,5.10
2018-10-02T04:50:28.576Z,5.10
2018-10-02T04:52:57.031Z,5.20
2018-10-02T04:55:25.874Z,5.20
2018-10-02T04:57:54.321Z,5.00
2018-10-02T05:00:22.793Z,4.90
2018-10-02T05:02:51.272Z,5.10
2018-10-02T05:05:19.769Z,5.10
2018-10-02T05:07:48.212Z,5.00
2018-10-02T05:10:16.677Z,5.00
2018-10-02T05:12:45.103Z,5.10
2018-10-02T05:15:13.629Z,5.20
2018-10-02T05:17:42.677Z,5.10
2018-10-02T05:20:11.989Z,5.20
2018-10-02T05:22:40.402Z,5.10
2018-10-02T05:25:08.981Z,5.10
2018-10-02T05:27:37.436Z,5.00
2018-10-02T05:30:05.938Z,5.00
2018-10-02T05:32:34.384Z,5.00
2018-10-02T05:35:03.720Z,5.00
2018-10-02T05:37:32.109Z,5.00
2018-10-02T05:40:00.597Z,4.90
2018-10-02T05:42:29.025Z,5.00
2018-10-02T05:44:57.457Z,5.10
2018-10-02T05:47:25.885Z,5.10
2018-10-02T05:49:54.349Z,5.20
2018-10-02T05:52:22.799Z,5.20
2018-10-02T05:54:51.269Z,5.20
2018-10-02T05:57:19.755Z,5.20
2018-10-02T05:59:48.229Z,5.20
2018-10-02T06:02:16.858Z,5.20
2018-10-02T06:04:45.549Z,5.20
2018-10-02T06:07:13.990Z,5.20
2018-10-02T06:09:42.472Z,5.10
2018-10-02T06:12:10.921Z,5.20
2018-10-02T06:14:39.388Z,5.10
2018-10-02T06:17:07.854Z,5.20
2018-10-02T06:19:36.350Z,5.20
2018-10-02T06:22:04.798Z,5.20
2018-10-02T06:24:33.365Z,5.20
2018-10-02T06:27:01.762Z,5.20
2018-10-02T06:29:30.234Z,5.40
2018-10-02T06:31:58.666Z,5.50
2018-10-02T06:34:27.147Z,5.50
2018-10-02T06:36:58.772Z,5.70
2018-10-02T06:39:29.229Z,5.90
2018-10-02T06:41:58.096Z,5.90
2018-10-02T06:44:26.661Z,5.90
2018-10-02T06:46:57.582Z,6.00
2018-10-02T06:49:26.090Z,6.10
2018-10-02T06:51:54.946Z,5.90
2018-10-02T06:54:23.491Z,5.90
2018-10-02T06:56:52.030Z,5.70
2018-10-02T06:59:20.453Z,5.70
2018-10-02T07:01:48.913Z,5.80
2018-10-02T07:04:17.379Z,5.80
2018-10-02T07:06:45.897Z,5.90
2018-10-02T07:09:14.333Z,6.10
2018-10-02T07:11:42.793Z,6.30
2018-10-02T07:14:11.536Z,6.50
2018-10-02T07:16:40.117Z,6.70
2018-10-02T07:19:09.253Z,6.70
2018-10-02T07:21:37.750Z,6.80
2018-10-02T07:24:06.237Z,6.80
2018-10-02T07:26:34.790Z,6.80
2018-10-02T07:29:03.195Z,6.90
2018-10-02T07:31:31.675Z,6.80
2018-10-02T07:34:00.157Z,7.00
2018-10-02T07:36:28.580Z,7.10
2018-10-02T07:38:57.112Z,7.30
2018-10-02T07:41:25.635Z,7.50
2018-10-02T07:43:54.718Z,7.70
2018-10-02T07:46:23.196Z,8.00
2018-10-02T07:48:51.650Z,8.10
2018-10-02T07:51:20.117Z,8.10
2018-10-02T07:53:48.640Z,8.30
2018-10-02T07:56:17.065Z,8.50
2018-10-02T07:58:45.506Z,8.60
2018-10-02T08:01:13.985Z,8.60
2018-10-02T08:03:42.520Z,8.70
2018-10-02T08:06:11.132Z,8.60
2018-10-02T08:08:39.618Z,8.60
2018-10-02T08:11:08.093Z,8.70
2018-10-02T08:13:36.562Z,8.60
2018-10-02T08:16:05.188Z,8.60
2018-10-02T08:18:33.631Z,8.80
2018-10-02T08:21:02.148Z,8.90
2018-10-02T08:23:30.692Z,9.00
2018-10-02T08:25:59.123Z,8.90
2018-10-02T08:28:27.586Z,8.70
2018-10-02T08:30:56.131Z,8.60
2018-10-02T08:33:24.589Z,8.80
2018-10-02T08:35:53.196Z,9.00
2018-10-02T08:38:21.791Z,9.00
2018-10-02T08:40:50.273Z,9.10
2018-10-02T08:43:18.731Z,9.40
2018-10-02T08:45:47.215Z,9.40
2018-10-02T08:48:15.661Z,9.40
2018-10-02T08:50:44.101Z,9.60
2018-10-02T08:53:12.602Z,9.60
2018-10-02T08:55:41.045Z,9.60
2018-10-02T08:58:09.521Z,9.60
2018-10-02T09:00:37.984Z,9.60
2018-10-02T09:03:06.562Z,9.50
2018-10-02T09:05:35.257Z,9.80
2018-10-02T09:08:03.758Z,9.80
2018-10-02T09:10:32.208Z,9.80
2018-10-02T09:13:00.718Z,9.80
2018-10-02T09:15:29.135Z,9.90
2018-10-02T09:17:57.621Z,10.00
2018-10-02T09:20:26.065Z,9.90
2018-10-02T09:22:54.529Z,10.00
2018-10-02T09:25:22.972Z,9.90
2018-10-02T09:27:51.441Z,9.80
2018-10-02T09:30:25.256Z,10.10
2018-10-02T09:32:58.950Z,10.00
2018-10-02T09:35:32.595Z,10.10
2018-10-02T09:38:06.461Z,10.00
2018-10-02T09:40:40.149Z,10.20
2018-10-02T09:43:14.070Z,10.20
2018-10-02T09:45:42.658Z,10.40
2018-10-02T09:48:13.354Z,10.50
2018-10-02T09:50:41.812Z,10.80
2018-10-02T09:53:10.261Z,10.80
2018-10-02T09:55:38.701Z,10.80
2018-10-02T09:58:07.196Z,10.80
2018-10-02T10:00:41.154Z,10.90
2018-10-02T10:03:09.617Z,10.90
2018-10-02T10:05:38.403Z,10.80
2018-10-02T10:08:06.890Z,10.50
2018-10-02T10:10:35.366Z,10.30
2018-10-02T10:13:04.095Z,10.20
2018-10-02T10:15:32.530Z,10.20
2018-10-02T10:18:01.069Z,10.40
2018-10-02T10:20:29.550Z,10.50
2018-10-02T10:22:58.086Z,10.70
2018-10-02T10:25:26.468Z,10.90
2018-10-02T10:27:54.928Z,11.10
2018-10-02T10:30:23.381Z,11.30
2018-10-02T10:32:51.839Z,11.40
2018-10-02T10:35:20.317Z,11.40
2018-10-02T10:37:48.837Z,11.20
2018-10-02T10:40:17.321Z,11.20
2018-10-02T10:42:45.758Z,11.10
2018-10-02T10:45:14.278Z,11.10
2018-10-02T10:47:43.532Z,11.10
2018-10-02T10:50:12.708Z,11.10
2018-10-02T10:52:41.297Z,11.10
2018-10-02T10:55:24.753Z,11.30
2018-10-02T10:57:53.215Z,11.40
2018-10-02T11:00:22.214Z,11.40
2018-10-02T11:02:50.905Z,11.30
2018-10-02T11:05:19.330Z,11.20
2018-10-02T11:07:47.854Z,11.20
2018-10-02T11:10:18.804Z,11.00
2018-10-02T11:12:47.589Z,11.00
2018-10-02T11:15:17.716Z,11.10
2018-10-02T11:17:46.154Z,11.20
2018-10-02T11:20:17.194Z,11.20
2018-10-02T11:22:46.571Z,11.40
2018-10-02T11:25:15.067Z,11.50
2018-10-02T11:27:43.518Z,11.40
2018-10-02T11:30:11.990Z,11.40
2018-10-02T11:32:40.447Z,11.30
2018-10-02T11:35:08.941Z,11.30
2018-10-02T11:37:37.426Z,11.40
2018-10-02T11:40:05.926Z,11.50
2018-10-02T11:42:34.379Z,11.40
2018-10-02T11:45:02.950Z,11.50
2018-10-02T11:47:31.334Z,11.50
2018-10-02T11:49:59.870Z,11.80
2018-10-02T11:52:28.255Z,11.90
2018-10-02T11:54:56.720Z,12.00
2018-10-02T11:57:25.161Z,11.80
2018-10-02T11:59:53.710Z,11.70
2018-10-02T12:02:22.297Z,11.80
2018-10-02T12:04:50.825Z,11.80
2018-10-02T12:07:19.272Z,11.90
2018-10-02T12:09:48.009Z,11.80
2018-10-02T12:12:16.449Z,11.70
2018-10-02T12:14:44.986Z,11.70
2018-10-02T12:17:13.397Z,11.80
2018-10-02T12:19:41.943Z,11.90
2018-10-02T12:22:10.821Z,11.90
2018-10-02T12:24:39.287Z,11.70
2018-10-02T12:27:07.862Z,11.60
2018-10-02T12:29:36.373Z,11.50
2018-10-02T12:32:04.836Z,11.40
2018-10-02T12:34:33.881Z,11.70
2018-10-02T12:37:02.466Z,11.70
2018-10-02T12:39:30.958Z,11.80
2018-10-02T12:41:59.410Z,11.90
2018-10-02T12:44:27.909Z,12.00
2018-10-02T12:46:56.381Z,11.80
2018-10-02T12:49:24.842Z,11.60
2018-10-02T12:51:53.334Z,11.40
2018-10-02T12:54:21.825Z,11.50
2018-10-02T12:56:50.319Z,11.40
2018-10-02T12:59:18.819Z,11.50
2018-10-02T13:01:47.307Z,11.60
2018-10-02T13:04:15.783Z,11.60
2018-10-02T13:06:44.572Z,11.60
2018-10-02T13:09:13.021Z,11.60
2018-10-02T13:11:41.473Z,11.60
2018-10-02T13:14:09.958Z,11.50
2018-10-02T13:16:38.413Z,11.40
2018-10-02T13:19:06.906Z,11.40
2018-10-02T13:21:35.353Z,11.40
2018-10-02T13:24:03.812Z,11.30
2018-10-02T13:26:32.276Z,11.10
2018-10-02T13:29:00.722Z,11.00
2018-10-02T13:31:29.213Z,11.00
2018-10-02T13:33:58.030Z,11.00
2018-10-02T13:36:26.515Z,11.10
2018-10-02T13:38:55.030Z,11.10
2018-10-02T13:41:23.928Z,11.00
2018-10-02T13:43:52.664Z,10.90
2018-10-02T13:46:21.124Z,10.80
2018-10-02T13:48:49.636Z,10.80
2018-10-02T13:51:18.125Z,10.90
2018-10-02T13:53:47.057Z,10.90
2018-10-02T13:56:15.557Z,11.00
2018-10-02T13:58:44.006Z,11.00
2018-10-02T14:01:12.494Z,10.80
2018-10-02T14:03:40.950Z,10.80
2018-10-02T14:06:09.428Z,10.60
2018-10-02T14:08:37.918Z,10.30
2018-10-02T14:11:06.501Z,10.20
2018-10-02T14:13:35.113Z,9.90
2018-10-02T14:16:03.569Z,9.70
2018-10-02T14:18:32.041Z,9.70
2018-10-02T14:21:00.950Z,9.60
2018-10-02T14:23:29.463Z,9.60
2018-10-02T14:25:57.982Z,9.60
2018-10-02T14:28:26.497Z,9.80
2018-10-02T14:30:54.962Z,9.90
2018-10-02T14:33:23.478Z,9.70
2018-10-02T14:35:52.022Z,9.70
2018-10-02T14:38:20.489Z,9.60
2018-10-02T14:40:48.950Z,9.60
2018-10-02T14:43:17.509Z,9.50
2018-10-02T14:45:45.906Z,9.70
2018-10-02T14:48:14.373Z,9.60
2018-10-02T14:50:42.817Z,9.80
2018-10-02T14:53:11.401Z,9.80
2018-10-02T14:55:39.877Z,9.70
2018-10-02T14:58:08.373Z,9.70
2018-10-02T15:00:36.869Z,9.70
2018-10-02T15:03:05.414Z,9.80
2018-10-02T15:05:33.881Z,9.80
2018-10-02T15:08:02.399Z,9.90
2018-10-02T15:10:30.908Z,9.80
2018-10-02T15:12:59.423Z,9.80
2018-10-02T15:15:27.974Z,9.70
2018-10-02T15:17:56.507Z,9.80
2018-10-02T15:20:24.955Z,9.70
2018-10-02T15:22:53.503Z,9.70
2018-10-02T15:25:21.979Z,9.70
2018-10-02T15:27:50.463Z,9.70
2018-10-02T15:30:18.950Z,9.70
2018-10-02T15:32:47.405Z,9.70
2018-10-02T15:35:15.926Z,9.80
2018-10-02T15:37:44.467Z,9.80
2018-10-02T15:40:12.900Z,9.80
2018-10-02T15:42:43.654Z,9.80
2018-10-02T15:45:12.102Z,9.80
2018-10-02T15:47:40.613Z,9.80
2018-10-02T15:50:09.142Z,9.60
2018-10-02T15:52:37.645Z,9.70
2018-10-02T15:55:06.110Z,9.70
2018-10-02T15:57:36.778Z,9.70
2018-10-02T16:00:05.334Z,9.70
2018-10-02T16:02:33.846Z,9.70
2018-10-02T16:05:02.398Z,9.80
2018-10-02T16:07:30.870Z,9.70
2018-10-02T16:09:59.367Z,9.80
2018-10-02T16:12:27.798Z,9.80
2018-10-02T16:14:56.277Z,9.80
2018-10-02T16:17:24.814Z,9.80
2018-10-02T16:19:53.318Z,9.80
2018-10-02T16:22:21.913Z,9.80
2018-10-02T16:24:50.400Z,9.80
2018-10-02T16:27:18.755Z,9.80
2018-10-02T16:29:47.219Z,9.70
2018-10-02T16:32:15.669Z,9.80
2018-10-02T16:34:49.290Z,9.80
2018-10-02T16:37:12.643Z,9.70
2018-10-02T16:39:41.144Z,9.60
2018-10-02T16:42:09.665Z,9.70
2018-10-02T16:44:38.146Z,9.60
2018-10-02T16:47:06.923Z,9.70
2018-10-02T16:49:35.941Z,9.60
2018-10-02T16:52:04.435Z,9.60
2018-10-02T16:54:32.977Z,9.60
2018-10-02T16:57:01.461Z,9.70
2018-10-02T16:59:29.956Z,9.60
2018-10-02T17:02:00.644Z,9.60
2018-10-02T17:04:31.514Z,9.60
2018-10-02T17:07:02.375Z,9.60
2018-10-02T17:09:31.129Z,9.60
2018-10-02T17:11:59.641Z,9.60
2018-10-02T17:14:28.624Z,9.60
2018-10-02T17:16:57.277Z,9.60
2018-10-02T17:19:25.801Z,9.60
2018-10-02T17:21:54.274Z,9.50
2018-10-02T17:24:22.802Z,9.40
2018-10-02T17:26:51.253Z,9.60
2018-10-02T17:29:19.778Z,9.60
2018-10-02T17:31:48.254Z,9.60
2018-10-02T17:34:16.758Z,9.60
2018-10-02T17:36:45.201Z,9.50
2018-10-02T17:39:13.722Z,9.50
2018-10-02T17:41:42.177Z,9.50
2018-10-02T17:44:10.734Z,9.50
2018-10-02T17:46:39.213Z,9.40
2018-10-02T17:49:07.769Z,9.50
2018-10-02T17:51:36.181Z,9.40
2018-10-02T17:54:04.671Z,9.40
2018-10-02T17:56:33.218Z,9.50
2018-10-02T17:59:01.678Z,9.40
2018-10-02T18:01:30.141Z,9.40
2018-10-02T18:03:58.622Z,9.50
2018-10-02T18:06:27.316Z,9.40
2018-10-02T18:08:55.809Z,9.40
2018-10-02T18:11:24.288Z,9.40
2018-10-02T18:13:52.776Z,9.40
2018-10-02T18:16:21.260Z,9.40
2018-10-02T18:18:49.994Z,9.50
2018-10-02T18:21:18.434Z,9.40
2018-10-02T18:23:46.893Z,9.30
2018-10-02T18:26:15.345Z,9.20
2018-10-02T18:28:43.818Z,9.10
2018-10-02T18:31:12.290Z,9.00
2018-10-02T18:33:40.791Z,9.00
2018-10-02T18:36:09.266Z,8.90
2018-10-02T18:38:37.872Z,8.80
2018-10-02T18:41:06.709Z,8.70
2018-10-02T18:43:35.215Z,8.70
2018-10-02T18:46:03.742Z,8.80
2018-10-02T18:48:32.223Z,8.80
2018-10-02T18:51:01.166Z,8.80
2018-10-02T18:53:29.780Z,8.80
2018-10-02T18:55:58.303Z,8.80
2018-10-02T18:58:26.779Z,8.80
2018-10-02T19:00:55.553Z,8.80
2018-10-02T19:03:24.432Z,8.80
2018-10-02T19:05:52.942Z,8.90
2018-10-02T19:08:26.666Z,8.90
2018-10-02T19:10:59.421Z,9.00
2018-10-02T19:13:27.998Z,8.90
2018-10-02T19:16:01.779Z,8.90
2018-10-02T19:18:30.238Z,9.00
2018-10-02T19:20:58.747Z,9.00
2018-10-02T19:23:27.202Z,8.90
2018-10-02T19:26:00.945Z,9.00
2018-10-02T19:28:29.409Z,8.90
2018-10-02T19:31:03.053Z,9.00
2018-10-02T19:33:31.532Z,9.00
2018-10-02T19:36:00.045Z,9.00
2018-10-02T19:38:35.971Z,9.00
2018-10-02T19:41:04.461Z,9.00
2018-10-02T19:43:32.946Z,8.90
2018-10-02T19:46:07.601Z,9.00
2018-10-02T19:48:36.045Z,8.90
2018-10-02T19:51:10.009Z,8.90
2018-10-02T19:53:38.464Z,8.90
2018-10-02T19:56:07.689Z,8.80
2018-10-02T19:58:36.410Z,8.80
2018-10-02T20:01:04.878Z,8.80
2018-10-02T20:03:33.464Z,8.70
2018-10-02T20:06:01.963Z,8.70
2018-10-02T20:08:30.722Z,8.70
2018-10-02T20:10:59.526Z,8.70
2018-10-02T20:13:30.283Z,8.70
2018-10-02T20:15:59.148Z,8.80
2018-10-02T20:18:27.602Z,8.80
2018-10-02T20:20:56.110Z,8.80
2018-10-02T20:23:26.444Z,8.80
2018-10-02T20:25:55.809Z,8.80
2018-10-02T20:28:24.284Z,8.70
2018-10-02T20:30:52.773Z,8.70
2018-10-02T20:33:21.237Z,8.80
2018-10-02T20:35:49.717Z,8.80
2018-10-02T20:38:18.188Z,8.80
2018-10-02T20:40:48.907Z,8.80
2018-10-02T20:43:18.398Z,8.80
2018-10-02T20:45:46.883Z,8.90
2018-10-02T20:48:15.325Z,8.80
2018-10-02T20:50:43.943Z,8.90
2018-10-02T20:53:12.451Z,8.80
2018-10-02T20:55:41.010Z,8.70
2018-10-02T20:58:09.794Z,8.70
2018-10-02T21:00:39.022Z,8.80
2018-10-02T21:03:07.518Z,8.80
2018-10-02T21:05:36.212Z,8.70
2018-10-02T21:08:04.751Z,8.70
2018-10-02T21:10:33.217Z,8.80
2018-10-02T21:13:01.718Z,8.70
2018-10-02T21:15:30.411Z,8.70
2018-10-02T21:17:58.699Z,8.80
2018-10-02T21:20:27.179Z,8.80
2018-10-02T21:22:57.265Z,8.80
2018-10-02T21:25:27.778Z,8.70
2018-10-02T21:27:57.338Z,8.70
2018-10-02T21:30:25.929Z,8.60
2018-10-02T21:32:56.006Z,8.60
2018-10-02T21:35:27.506Z,8.60
2018-10-02T21:37:55.978Z,8.60
2018-10-02T21:40:24.498Z,8.60
2018-10-02T21:42:55.143Z,8.60
2018-10-02T21:45:26.518Z,8.50
2018-10-02T21:47:56.186Z,8.50
2018-10-02T21:50:24.702Z,8.40
2018-10-02T21:52:53.173Z,8.50
2018-10-02T21:55:21.609Z,8.50
2018-10-02T21:57:50.088Z,8.40
2018-10-02T22:00:18.586Z,8.40
2018-10-02T22:02:47.125Z,8.40
2018-10-02T22:05:15.605Z,8.50
2018-10-02T22:07:44.086Z,8.50
2018-10-02T22:10:12.561Z,8.60
2018-10-02T22:12:41.119Z,8.60
2018-10-02T22:15:09.609Z,8.80
2018-10-02T22:17:38.071Z,8.90
2018-10-02T22:20:06.610Z,8.90
2018-10-02T22:22:35.086Z,8.90
2018-10-02T22:25:03.574Z,8.90
2018-10-02T22:27:32.269Z,8.90
2018-10-02T22:30:00.806Z,8.90
2018-10-02T22:32:29.277Z,8.90
2018-10-02T22:34:57.730Z,8.80
2018-10-02T22:37:26.209Z,8.70
2018-10-02T22:39:54.675Z,8.70
2018-10-02T22:42:23.642Z,8.60
2018-10-02T22:44:52.097Z,8.60
2018-10-02T22:47:20.809Z,8.70
2018-10-02T22:49:49.270Z,8.70
2018-10-02T22:52:17.757Z,8.60
2018-10-02T22:54:46.214Z,8.70
2018-10-02T22:57:14.690Z,8.70
2018-10-02T22:59:43.162Z,8.70
2018-10-02T23:02:11.674Z,8.70
2018-10-02T23:04:40.154Z,8.80
2018-10-02T23:07:08.626Z,8.80
2018-10-02T23:09:37.125Z,8.80
2018-10-02T23:12:05.585Z,8.70
2018-10-02T23:14:34.067Z,8.70
2018-10-02T23:17:02.534Z,8.70
2018-10-02T23:19:31.033Z,8.70
2018-10-02T23:21:59.499Z,8.70
2018-10-02T23:24:27.973Z,8.80
2018-10-02T23:26:56.438Z,8.90
2018-10-02T23:29:25.150Z,9.00
2018-10-02T23:31:53.591Z,9.00
2018-10-02T23:34:22.058Z,9.00
2018-10-02T23:36:50.554Z,9.00
2018-10-02T23:39:19.043Z,9.00
2018-10-02T23:41:47.498Z,9.00
2018-10-02T23:44:15.981Z,9.00
2018-10-02T23:46:44.431Z,9.10
2018-10-02T23:49:12.913Z,9.10
2018-10-02T23:51:41.386Z,9.10
2018-10-02T23:54:09.894Z,9.20
2018-10-02T23:56:38.438Z,9.20
2018-10-02T23:59:07.201Z,9.20
